Airport View

Enter AWOS ICAO identifier for current METAR.

ex. KFNL

TJSJ 080356Z 12006KT 10SM SCT032 27/24 A2999

8 Jul 2020 04:49

Phone: 787-791-6500

Other Area AWOS: TJNR - TJPS - TIST - TJBQ

TAF TJSJ 080123Z 0801/0824 12006KT P6SM VCSH SCT020 SCT030 FM081400 07015KT P6SM FEW020 SCT030 FM082200 09009KT P6SM FEW025